Time;durP1;ratioP1;P1;durP2;ratioP2;P2;SDS_P1;SDS_P2;PMS_P1;PMS_P2;Temp;Humidity;BMP_temperature;BMP_pressure;BME280_temperature;BME280_humidity;BME280_pressure;Samples;Min_cycle;Max_cycle;Signal;HPM_P1;HPM_P2
2024/03/08 00:01:18;;;;;;;23.40;12.67;;;4.50;99.90;;;;;;6153680;23;20762;-66
2024/03/08 00:03:45;;;;;;;21.27;11.73;;;4.50;99.90;;;;;;6153801;23;20407;-65
2024/03/08 00:06:12;;;;;;;20.90;12.73;;;4.50;99.90;;;;;;6154038;23;20398;-65
2024/03/08 00:08:41;;;;;;;24.70;12.90;;;4.40;99.90;;;;;;6153457;23;20406;-65
2024/03/08 00:11:08;;;;;;;20.33;12.40;;;4.40;99.90;;;;;;6153677;23;20406;-65
2024/03/08 00:13:35;;;;;;;24.20;12.70;;;4.40;99.90;;;;;;6153510;23;20427;-66
2024/03/08 00:16:02;;;;;;;23.87;12.37;;;4.40;99.90;;;;;;6155289;23;20406;-66
2024/03/08 00:18:29;;;;;;;25.03;11.33;;;4.40;99.90;;;;;;6155570;23;20410;-66
2024/03/08 00:20:56;;;;;;;20.73;11.40;;;4.40;99.90;;;;;;6155613;23;20441;-66
2024/03/08 00:23:23;;;;;;;21.97;10.90;;;4.40;99.90;;;;;;6155466;23;20429;-66
2024/03/08 00:25:51;;;;;;;25.87;12.70;;;4.40;99.90;;;;;;6156061;23;20402;-66
2024/03/08 00:28:18;;;;;;;20.27;11.67;;;4.40;99.90;;;;;;6156562;23;20796;-66
2024/03/08 00:30:46;;;;;;;21.80;10.73;;;4.40;99.90;;;;;;6156101;23;20452;-66
2024/03/08 00:33:13;;;;;;;17.30;10.40;;;4.40;99.90;;;;;;6155188;23;20513;-66
2024/03/08 00:35:40;;;;;;;26.97;13.67;;;4.40;99.90;;;;;;6155623;23;20524;-65
2024/03/08 00:38:07;;;;;;;26.80;12.00;;;4.40;99.90;;;;;;6155697;23;20402;-65
2024/03/08 00:40:34;;;;;;;22.70;11.17;;;4.40;99.90;;;;;;6155294;23;20444;-66
2024/03/08 00:43:03;;;;;;;27.50;12.50;;;4.40;99.90;;;;;;6155252;23;20834;-66
2024/03/08 00:45:30;;;;;;;26.83;12.37;;;4.40;99.90;;;;;;6155205;23;20437;-65
2024/03/08 00:47:57;;;;;;;29.43;13.20;;;4.40;99.90;;;;;;6155122;23;20410;-66
2024/03/08 00:50:24;;;;;;;21.77;11.90;;;4.40;99.90;;;;;;6155230;23;20434;-66
2024/03/08 00:52:51;;;;;;;26.00;12.30;;;4.30;99.90;;;;;;6154943;23;20453;-66
2024/03/08 00:55:18;;;;;;;21.67;11.90;;;4.30;99.90;;;;;;6155505;23;20939;-66
2024/03/08 00:57:45;;;;;;;23.97;12.53;;;4.30;99.90;;;;;;6155546;23;20406;-66
2024/03/08 01:00:14;;;;;;;22.83;12.80;;;4.30;99.90;;;;;;6155070;23;20438;-66
2024/03/08 01:02:41;;;;;;;25.50;12.20;;;4.20;99.90;;;;;;6154951;23;20787;-67
2024/03/08 01:05:09;;;;;;;25.70;12.40;;;4.30;99.90;;;;;;6155657;23;20484;-66
2024/03/08 01:07:36;;;;;;;26.13;12.87;;;4.20;99.90;;;;;;6156046;23;20761;-66
2024/03/08 01:10:03;;;;;;;22.53;11.07;;;4.20;99.90;;;;;;6155441;23;20398;-66
2024/03/08 01:12:30;;;;;;;22.37;12.07;;;4.20;99.90;;;;;;6154420;23;20482;-66
2024/03/08 01:14:58;;;;;;;25.83;12.20;;;4.20;99.90;;;;;;6155001;23;20413;-66
2024/03/08 01:17:26;;;;;;;22.90;12.07;;;4.20;99.90;;;;;;6155258;23;20410;-65
2024/03/08 01:19:54;;;;;;;21.90;12.13;;;4.20;99.90;;;;;;6154877;23;20450;-68
2024/03/08 01:22:22;;;;;;;35.27;11.93;;;4.20;99.90;;;;;;6154816;23;20422;-66
2024/03/08 01:24:49;;;;;;;25.87;11.00;;;4.20;99.90;;;;;;6155283;23;20410;-66
2024/03/08 01:27:16;;;;;;;24.80;12.37;;;4.20;99.90;;;;;;6155161;23;20441;-66
2024/03/08 01:29:43;;;;;;;21.93;12.00;;;4.20;99.90;;;;;;6155606;23;20485;-66
2024/03/08 01:32:09;;;;;;;19.23;12.07;;;4.20;99.90;;;;;;6155133;23;20730;-66
2024/03/08 01:34:38;;;;;;;22.17;10.70;;;4.10;99.90;;;;;;6155699;23;20924;-66
2024/03/08 01:37:06;;;;;;;27.27;13.30;;;4.10;99.90;;;;;;6155588;23;20931;-66
2024/03/08 01:39:33;;;;;;;26.07;13.17;;;4.10;99.90;;;;;;6154722;23;20936;-66
2024/03/08 01:42:00;;;;;;;21.93;10.90;;;4.10;99.90;;;;;;6154603;23;20808;-66
2024/03/08 01:44:27;;;;;;;24.90;13.20;;;4.10;99.90;;;;;;6155797;23;20899;-66
2024/03/08 01:46:55;;;;;;;23.67;12.50;;;4.10;99.90;;;;;;6155273;23;20469;-67
2024/03/08 01:49:23;;;;;;;21.63;12.30;;;4.10;99.90;;;;;;6154600;23;20436;-65
2024/03/08 01:51:56;;;;;;;24.50;13.30;;;4.10;99.90;;;;;;6153835;23;20481;-66
2024/03/08 01:54:26;;;;;;;26.90;13.53;;;4.10;99.90;;;;;;6154545;23;20426;-64
2024/03/08 01:56:54;;;;;;;17.50;12.30;;;4.10;99.90;;;;;;6154903;23;20434;-65
2024/03/08 01:59:21;;;;;;;28.63;12.23;;;4.10;99.90;;;;;;6154634;23;20410;-66
2024/03/08 02:01:48;;;;;;;16.07;10.40;;;4.00;99.90;;;;;;6153916;23;20524;-66
2024/03/08 02:04:16;;;;;;;23.87;13.80;;;4.10;99.90;;;;;;6154347;23;20456;-66
2024/03/08 02:06:43;;;;;;;28.37;12.80;;;4.00;99.90;;;;;;6154416;23;20406;-65
2024/03/08 02:09:11;;;;;;;25.53;11.73;;;4.10;99.90;;;;;;6154691;23;20440;-66
2024/03/08 02:11:38;;;;;;;25.63;11.03;;;4.00;99.90;;;;;;6153615;23;20422;-67
2024/03/08 02:14:06;;;;;;;23.80;12.97;;;4.10;99.90;;;;;;6154707;23;20453;-66
2024/03/08 02:16:33;;;;;;;29.20;13.33;;;4.00;99.90;;;;;;6154394;23;20407;-66
2024/03/08 02:19:00;;;;;;;26.40;13.50;;;4.00;99.90;;;;;;6154221;23;20457;-66
2024/03/08 02:21:28;;;;;;;23.50;12.17;;;4.00;99.90;;;;;;6153993;23;20524;-65
2024/03/08 02:23:55;;;;;;;27.37;12.57;;;4.00;99.90;;;;;;6154370;23;20772;-65
2024/03/08 02:26:22;;;;;;;21.73;10.60;;;3.90;99.90;;;;;;6154604;23;20434;-65
2024/03/08 02:28:49;;;;;;;23.00;12.40;;;3.90;99.90;;;;;;6154580;23;20477;-66
2024/03/08 02:31:16;;;;;;;22.03;11.73;;;3.90;99.90;;;;;;6154211;23;20401;-65
2024/03/08 02:33:46;;;;;;;30.70;15.80;;;3.90;99.90;;;;;;6153696;23;20407;-66
2024/03/08 02:36:13;;;;;;;18.80;12.43;;;3.80;99.90;;;;;;6154034;23;20908;-65
2024/03/08 02:38:41;;;;;;;25.73;11.40;;;3.80;99.90;;;;;;6154463;23;20441;-65
2024/03/08 02:41:08;;;;;;;23.33;12.43;;;3.80;99.90;;;;;;6154951;23;20456;-65
2024/03/08 02:43:35;;;;;;;19.00;12.27;;;3.80;99.90;;;;;;6153971;23;20429;-65
2024/03/08 02:46:02;;;;;;;26.10;12.90;;;3.80;99.90;;;;;;6154339;23;20444;-66
2024/03/08 02:48:29;;;;;;;26.80;11.93;;;3.80;99.90;;;;;;6154633;23;20402;-65
2024/03/08 02:50:56;;;;;;;22.33;11.20;;;3.70;99.90;;;;;;6154229;23;20436;-66
2024/03/08 02:53:24;;;;;;;25.63;13.03;;;3.70;99.90;;;;;;6154118;23;20671;-66
2024/03/08 02:55:52;;;;;;;28.73;10.87;;;3.70;99.90;;;;;;6155067;23;20414;-66
2024/03/08 02:58:19;;;;;;;22.30;12.70;;;3.70;99.90;;;;;;6155110;23;20868;-66
2024/03/08 03:00:46;;;;;;;23.57;12.33;;;3.60;99.90;;;;;;6154306;23;20442;-66
2024/03/08 03:03:13;;;;;;;28.70;11.60;;;3.60;99.90;;;;;;6153650;23;20426;-65
2024/03/08 03:05:41;;;;;;;24.10;11.67;;;3.60;99.90;;;;;;6153889;23;20434;-66
2024/03/08 03:08:08;;;;;;;20.57;12.47;;;3.60;99.90;;;;;;6153886;23;20406;-66
2024/03/08 03:10:35;;;;;;;29.20;11.40;;;3.50;99.90;;;;;;6153822;23;20406;-65
2024/03/08 03:13:04;;;;;;;26.07;13.03;;;3.50;99.90;;;;;;6155093;23;20422;-66
2024/03/08 03:15:31;;;;;;;28.43;12.80;;;3.50;99.90;;;;;;6154327;23;20493;-67
2024/03/08 03:17:58;;;;;;;32.07;12.30;;;3.50;99.90;;;;;;6154330;23;20489;-66
2024/03/08 03:20:26;;;;;;;28.73;13.77;;;3.50;99.90;;;;;;6154468;23;20470;-65
2024/03/08 03:22:53;;;;;;;23.10;11.97;;;3.50;99.90;;;;;;6153107;23;20422;-66
2024/03/08 03:25:24;;;;;;;24.13;12.47;;;3.40;99.90;;;;;;6154262;23;20923;-66
2024/03/08 03:27:52;;;;;;;27.03;13.60;;;3.40;99.90;;;;;;6154054;23;20387;-66
2024/03/08 03:30:21;;;;;;;27.93;11.70;;;3.40;99.90;;;;;;6154960;23;20434;-66
2024/03/08 03:32:49;;;;;;;29.23;11.00;;;3.40;99.90;;;;;;6153496;23;20426;-67
2024/03/08 03:35:16;;;;;;;22.97;11.47;;;3.40;99.90;;;;;;6153711;23;20409;-66
2024/03/08 03:37:45;;;;;;;37.30;14.27;;;3.40;99.90;;;;;;6154224;23;20409;-66
2024/03/08 03:40:14;;;;;;;22.13;11.10;;;3.30;99.90;;;;;;6153869;23;20944;-65
2024/03/08 03:42:40;;;;;;;22.30;12.63;;;3.30;99.90;;;;;;6153495;23;20773;-67
2024/03/08 03:45:09;;;;;;;24.20;12.60;;;3.30;99.90;;;;;;6153858;23;20438;-65
2024/03/08 03:47:38;;;;;;;27.90;12.33;;;3.20;99.90;;;;;;6153763;23;20437;-67
2024/03/08 03:50:06;;;;;;;20.90;12.20;;;3.20;99.90;;;;;;6154946;23;20409;-66
2024/03/08 03:52:33;;;;;;;29.60;13.30;;;3.20;99.90;;;;;;6155653;23;20421;-67
2024/03/08 03:55:00;;;;;;;30.07;13.50;;;3.20;99.90;;;;;;6155831;23;20406;-66
2024/03/08 03:57:27;;;;;;;26.23;11.57;;;3.10;99.90;;;;;;6155981;23;20456;-66
2024/03/08 03:59:54;;;;;;;26.50;12.60;;;3.10;99.90;;;;;;6156015;23;20471;-66
2024/03/08 04:02:21;;;;;;;24.33;12.23;;;3.10;99.90;;;;;;6155291;23;21003;-66
2024/03/08 04:04:49;;;;;;;24.67;12.70;;;3.10;99.90;;;;;;6156129;23;20447;-66
2024/03/08 04:07:16;;;;;;;27.83;12.83;;;3.00;99.90;;;;;;6156474;23;20778;-66
2024/03/08 04:09:43;;;;;;;23.63;13.60;;;3.00;99.90;;;;;;6156119;23;20808;-66
2024/03/08 04:12:10;;;;;;;29.97;13.63;;;2.90;99.90;;;;;;6156444;23;20422;-66
2024/03/08 04:14:37;;;;;;;31.37;14.83;;;2.90;99.90;;;;;;6156924;23;20434;-65
2024/03/08 04:17:05;;;;;;;30.13;15.50;;;2.90;99.90;;;;;;6155939;23;20904;-67
2024/03/08 04:19:34;;;;;;;24.37;11.20;;;3.00;99.90;;;;;;6155508;23;20410;-67
2024/03/08 04:22:02;;;;;;;26.53;14.07;;;3.00;99.90;;;;;;6155089;23;20960;-65
2024/03/08 04:24:30;;;;;;;24.80;14.20;;;2.90;99.90;;;;;;6155725;23;20408;-65
2024/03/08 04:26:57;;;;;;;27.70;13.10;;;2.90;99.90;;;;;;6155825;23;20417;-64
2024/03/08 04:29:24;;;;;;;31.70;14.40;;;2.90;99.90;;;;;;6155957;23;20423;-66
2024/03/08 04:31:54;;;;;;;23.40;12.37;;;2.90;99.90;;;;;;6158558;23;20450;-66
2024/03/08 04:34:20;;;;;;;28.07;13.40;;;2.90;99.90;;;;;;6155922;23;20444;-65
2024/03/08 04:36:47;;;;;;;30.60;14.70;;;2.80;99.90;;;;;;6155658;23;20410;-65
2024/03/08 04:39:16;;;;;;;29.63;12.77;;;2.80;99.90;;;;;;6158040;23;20461;-65
2024/03/08 04:41:44;;;;;;;22.77;14.60;;;2.70;99.90;;;;;;6158607;23;20528;-65
2024/03/08 04:44:12;;;;;;;24.80;13.50;;;2.60;99.90;;;;;;6159972;23;20404;-65
2024/03/08 04:46:39;;;;;;;31.93;13.43;;;2.60;99.90;;;;;;6158874;23;20473;-65
2024/03/08 04:49:07;;;;;;;31.23;14.47;;;2.60;99.90;;;;;;6159591;23;20416;-66
2024/03/08 04:51:34;;;;;;;35.03;15.53;;;2.60;99.90;;;;;;6158249;23;20811;-65
2024/03/08 04:54:02;;;;;;;26.17;14.23;;;2.50;99.90;;;;;;6154990;23;20405;-65
2024/03/08 04:56:30;;;;;;;35.77;14.83;;;2.50;99.90;;;;;;6155195;23;20904;-66
2024/03/08 04:58:56;;;;;;;31.50;13.73;;;2.50;99.90;;;;;;6155191;23;20481;-65
2024/03/08 05:01:23;;;;;;;25.27;13.00;;;2.50;99.90;;;;;;6154160;23;20445;-66
2024/03/08 05:03:53;;;;;;;26.20;14.30;;;2.40;99.90;;;;;;6154920;23;20492;-67
2024/03/08 05:06:20;;;;;;;30.70;15.33;;;2.40;99.90;;;;;;6156216;23;20445;-66
2024/03/08 05:08:47;;;;;;;30.57;15.37;;;2.30;99.90;;;;;;6156221;23;20434;-66
2024/03/08 05:11:15;;;;;;;29.00;13.90;;;2.40;99.90;;;;;;6155368;23;20478;-65
2024/03/08 05:13:43;;;;;;;33.53;14.97;;;2.40;99.90;;;;;;6154726;23;20426;-65
2024/03/08 05:16:10;;;;;;;28.13;15.30;;;2.30;99.90;;;;;;6154959;23;20405;-65
2024/03/08 05:18:37;;;;;;;33.50;15.47;;;2.30;99.90;;;;;;6155152;23;20425;-65
2024/03/08 05:21:04;;;;;;;29.73;14.30;;;2.30;99.90;;;;;;6154606;23;20525;-65
2024/03/08 05:23:30;;;;;;;35.70;16.70;;;2.40;99.90;;;;;;6154854;23;20749;-65
2024/03/08 05:25:58;;;;;;;31.80;16.97;;;2.40;99.90;;;;;;6155298;23;20488;-65
2024/03/08 05:28:24;;;;;;;44.57;15.70;;;2.50;99.90;;;;;;6154622;23;20411;-65
2024/03/08 05:30:52;;;;;;;35.50;16.70;;;2.40;99.90;;;;;;6155158;23;20489;-65
2024/03/08 05:33:19;;;;;;;36.50;15.47;;;2.40;99.90;;;;;;6154396;23;20457;-66
2024/03/08 05:35:45;;;;;;;31.43;14.10;;;2.40;99.90;;;;;;6155288;23;20406;-66
2024/03/08 05:38:12;;;;;;;37.07;16.70;;;2.40;99.90;;;;;;6155245;23;20413;-66
2024/03/08 05:40:39;;;;;;;31.43;15.33;;;2.40;99.90;;;;;;6155135;23;20552;-65
2024/03/08 05:43:06;;;;;;;29.37;14.90;;;2.60;99.90;;;;;;6154643;23;20525;-65
2024/03/08 05:45:34;;;;;;;29.33;14.03;;;2.40;99.90;;;;;;6154674;23;20784;-65
2024/03/08 05:48:02;;;;;;;24.97;15.10;;;2.40;99.90;;;;;;6154382;23;20409;-65
2024/03/08 05:50:29;;;;;;;32.37;13.90;;;2.40;99.90;;;;;;6154994;23;20437;-65
2024/03/08 05:52:57;;;;;;;35.80;15.77;;;2.40;99.90;;;;;;6154438;23;20497;-66
2024/03/08 05:55:24;;;;;;;28.30;14.10;;;2.40;99.90;;;;;;6154677;23;20445;-67
2024/03/08 05:57:53;;;;;;;28.03;15.90;;;2.40;99.90;;;;;;6155132;23;20456;-66
2024/03/08 06:00:22;;;;;;;36.87;15.53;;;2.40;99.90;;;;;;6155504;23;20431;-65
2024/03/08 06:02:48;;;;;;;37.13;15.70;;;2.40;99.90;;;;;;6154319;23;20481;-65
2024/03/08 06:05:17;;;;;;;30.90;14.00;;;2.40;99.90;;;;;;6154597;23;20482;-65
2024/03/08 06:07:44;;;;;;;35.10;16.00;;;2.40;99.90;;;;;;6154503;23;20405;-65
2024/03/08 06:10:12;;;;;;;24.17;14.07;;;2.40;99.90;;;;;;6154935;23;20406;-67
2024/03/08 06:12:41;;;;;;;31.50;15.30;;;2.40;99.90;;;;;;6153385;23;20425;-65
2024/03/08 06:15:09;;;;;;;31.57;14.43;;;2.40;99.90;;;;;;6154687;23;20415;-66
2024/03/08 06:17:36;;;;;;;34.30;16.43;;;2.40;99.90;;;;;;6154703;23;20434;-66
2024/03/08 06:20:10;;;;;;;36.47;16.50;;;2.40;99.90;;;;;;6154263;23;20481;-66
2024/03/08 06:22:40;;;;;;;36.67;16.97;;;2.40;99.90;;;;;;6155822;23;20453;-66
2024/03/08 06:25:07;;;;;;;31.47;15.07;;;2.40;99.90;;;;;;6155539;23;20424;-66
2024/03/08 06:27:34;;;;;;;30.00;13.27;;;2.40;99.90;;;;;;6154756;23;20489;-66
2024/03/08 06:30:01;;;;;;;38.43;15.30;;;2.40;99.90;;;;;;6155471;23;20528;-65
2024/03/08 06:32:28;;;;;;;38.57;17.00;;;2.40;99.90;;;;;;6154116;23;20425;-65
2024/03/08 06:34:55;;;;;;;30.20;14.73;;;2.40;99.90;;;;;;6154893;23;20493;-66
2024/03/08 06:37:23;;;;;;;31.23;15.77;;;2.50;99.90;;;;;;6154949;23;20440;-65
2024/03/08 06:39:54;;;;;;;35.33;17.67;;;2.50;99.90;;;;;;6155307;23;20948;-66
2024/03/08 06:42:21;;;;;;;32.57;16.37;;;2.50;99.90;;;;;;6154867;23;20453;-65
2024/03/08 06:44:49;;;;;;;31.90;16.57;;;2.60;99.90;;;;;;6154396;23;20410;-66
2024/03/08 06:47:16;;;;;;;34.33;16.67;;;2.60;99.90;;;;;;6155472;23;20413;-66
2024/03/08 06:49:43;;;;;;;29.40;14.43;;;2.60;99.90;;;;;;6155825;23;20414;-66
2024/03/08 06:52:10;;;;;;;38.77;17.87;;;2.60;99.90;;;;;;6154999;23;20425;-66
2024/03/08 06:54:37;;;;;;;30.17;16.43;;;2.70;99.90;;;;;;6155796;23;20440;-65
2024/03/08 06:57:06;;;;;;;26.23;15.17;;;2.70;99.90;;;;;;6156046;23;20484;-65
2024/03/08 06:59:33;;;;;;;23.60;14.00;;;2.80;99.90;;;;;;6156295;23;20485;-65
2024/03/08 07:02:00;;;;;;;30.37;15.77;;;2.70;99.90;;;;;;6154889;23;20524;-66
2024/03/08 07:04:29;;;;;;;36.80;13.90;;;2.80;99.90;;;;;;6154183;23;20986;-65
2024/03/08 07:06:57;;;;;;;27.13;14.67;;;2.80;99.90;;;;;;6154779;23;20409;-66
2024/03/08 07:09:24;;;;;;;31.33;18.70;;;2.90;99.90;;;;;;6154925;23;20442;-66
2024/03/08 07:11:54;;;;;;;28.00;14.40;;;3.00;99.90;;;;;;6153888;23;20418;-66
2024/03/08 07:14:22;;;;;;;25.13;15.30;;;3.00;99.90;;;;;;6154876;23;20477;-67
2024/03/08 07:16:50;;;;;;;26.57;14.77;;;3.10;99.90;;;;;;6154757;23;20742;-67
2024/03/08 07:19:17;;;;;;;30.67;13.80;;;3.20;99.90;;;;;;6154673;23;20406;-67
2024/03/08 07:21:44;;;;;;;35.20;15.50;;;3.20;99.90;;;;;;6153621;23;20537;-66
2024/03/08 07:24:27;;;;;;;34.03;14.87;;;3.30;99.90;;;;;;6155935;23;20444;-65
2024/03/08 07:27:01;;;;;;;31.13;15.60;;;3.30;99.90;;;;;;6157799;23;20462;-65
2024/03/08 07:29:29;;;;;;;29.37;16.30;;;3.40;99.90;;;;;;6157107;23;20390;-66
2024/03/08 07:32:08;;;;;;;31.23;13.97;;;3.40;99.90;;;;;;6156846;23;20425;-65
2024/03/08 07:34:35;;;;;;;31.30;15.03;;;3.50;99.90;;;;;;6157585;23;20392;-67
2024/03/08 07:37:01;;;;;;;28.33;15.93;;;3.60;99.90;;;;;;6157240;23;20492;-65
2024/03/08 07:39:28;;;;;;;27.13;15.90;;;3.70;99.90;;;;;;6158675;23;20728;-66
2024/03/08 07:41:55;;;;;;;25.33;16.93;;;3.80;99.90;;;;;;6157140;23;20449;-65
2024/03/08 07:44:22;;;;;;;26.37;15.00;;;3.80;99.90;;;;;;6157413;23;20489;-65
2024/03/08 07:46:51;;;;;;;25.33;14.67;;;3.90;99.90;;;;;;6157455;23;20421;-67
2024/03/08 07:49:18;;;;;;;29.90;15.03;;;3.90;99.90;;;;;;6157847;23;20441;-65
2024/03/08 07:51:45;;;;;;;22.73;12.90;;;4.10;99.90;;;;;;6157225;23;20454;-65
2024/03/08 07:54:13;;;;;;;31.43;15.80;;;4.10;99.90;;;;;;6157369;23;20417;-68
2024/03/08 07:56:39;;;;;;;30.40;14.73;;;4.10;99.90;;;;;;6157827;23;20707;-65
2024/03/08 07:59:07;;;;;;;36.73;16.37;;;4.20;99.90;;;;;;6157390;23;20485;-66
2024/03/08 08:01:34;;;;;;;28.40;14.80;;;4.30;99.90;;;;;;6156960;23;20508;-67
2024/03/08 08:04:02;;;;;;;28.20;15.93;;;4.30;99.90;;;;;;6157435;23;20489;-65
2024/03/08 08:06:31;;;;;;;30.03;13.87;;;4.40;99.90;;;;;;6157350;23;20956;-66
2024/03/08 08:08:58;;;;;;;30.17;13.63;;;4.40;99.90;;;;;;6157009;23;20406;-66
2024/03/08 08:11:27;;;;;;;28.57;15.67;;;4.50;99.90;;;;;;6156532;23;20433;-65
2024/03/08 08:13:54;;;;;;;34.37;17.37;;;4.60;99.90;;;;;;6157109;23;20413;-66
2024/03/08 08:16:21;;;;;;;26.30;14.20;;;4.70;99.90;;;;;;6157054;23;20402;-65
2024/03/08 08:18:48;;;;;;;35.77;16.93;;;4.80;99.90;;;;;;6156902;23;20401;-66
2024/03/08 08:21:17;;;;;;;32.03;15.37;;;4.90;99.90;;;;;;6156581;23;20463;-67
2024/03/08 08:23:44;;;;;;;30.47;14.93;;;5.00;99.90;;;;;;6156984;23;20756;-66
2024/03/08 08:26:11;;;;;;;30.77;14.83;;;5.10;99.90;;;;;;6156823;23;20489;-65
2024/03/08 08:28:40;;;;;;;33.10;13.30;;;5.20;99.90;;;;;;6157379;23;20398;-65
2024/03/08 08:31:08;;;;;;;23.93;12.90;;;5.30;99.90;;;;;;6156826;23;20406;-66
2024/03/08 08:33:35;;;;;;;27.20;14.50;;;5.40;99.90;;;;;;6156391;23;20497;-67
2024/03/08 08:36:03;;;;;;;26.10;14.57;;;5.40;99.90;;;;;;6155796;23;20976;-66
2024/03/08 08:38:32;;;;;;;25.80;14.33;;;5.50;99.90;;;;;;6155632;23;20413;-66
2024/03/08 08:40:59;;;;;;;30.33;14.60;;;5.60;99.90;;;;;;6155292;23;20412;-66
2024/03/08 08:43:26;;;;;;;27.63;13.47;;;5.60;99.90;;;;;;6154802;23;20442;-66
2024/03/08 08:45:54;;;;;;;24.77;15.57;;;5.70;99.90;;;;;;6155178;23;20417;-67
2024/03/08 08:48:21;;;;;;;25.10;12.47;;;5.80;99.90;;;;;;6155150;23;20496;-66
2024/03/08 08:50:50;;;;;;;23.73;13.50;;;5.90;99.90;;;;;;6155277;23;20893;-65
2024/03/08 08:53:18;;;;;;;25.10;14.07;;;5.90;99.90;;;;;;6154663;23;20426;-65
2024/03/08 08:55:46;;;;;;;25.23;13.40;;;6.00;99.90;;;;;;6155136;23;20522;-66
2024/03/08 08:58:14;;;;;;;26.93;13.17;;;6.10;99.90;;;;;;6155209;23;20961;-66
2024/03/08 09:00:41;;;;;;;24.07;13.47;;;6.50;99.90;;;;;;6155658;23;20406;-67
2024/03/08 09:03:09;;;;;;;29.37;14.00;;;7.70;99.90;;;;;;6154499;23;20446;-65
2024/03/08 09:05:36;;;;;;;25.07;13.50;;;9.20;99.90;;;;;;6155012;23;20493;-67
2024/03/08 09:08:02;;;;;;;29.43;13.63;;;10.80;99.90;;;;;;6155088;23;20434;-65
2024/03/08 09:10:29;;;;;;;21.37;13.80;;;12.30;99.10;;;;;;6154972;23;20437;-66
2024/03/08 09:12:59;;;;;;;31.20;15.40;;;13.50;92.60;;;;;;6154663;23;20750;-65
2024/03/08 09:15:28;;;;;;;26.50;15.57;;;14.60;87.40;;;;;;6154900;23;20414;-66
2024/03/08 09:17:55;;;;;;;33.60;17.43;;;15.70;79.10;;;;;;6155166;23;20410;-65
2024/03/08 09:20:22;;;;;;;24.77;16.30;;;16.50;68.80;;;;;;6155428;23;20493;-66
2024/03/08 09:22:49;;;;;;;31.97;16.53;;;17.00;65.40;;;;;;6154343;23;20484;-65
2024/03/08 09:25:16;;;;;;;25.40;16.90;;;17.60;61.70;;;;;;6155204;23;20477;-67
2024/03/08 09:27:43;;;;;;;21.00;17.00;;;17.90;59.10;;;;;;6154905;23;20493;-65
2024/03/08 09:30:13;;;;;;;25.80;15.67;;;18.50;56.70;;;;;;6155223;23;20407;-66
2024/03/08 09:32:40;;;;;;;23.97;16.10;;;18.20;53.90;;;;;;6154598;23;20422;-65
2024/03/08 09:35:07;;;;;;;24.57;15.67;;;17.00;54.60;;;;;;6155127;23;20485;-66
2024/03/08 09:37:34;;;;;;;26.60;16.77;;;15.80;55.80;;;;;;6154652;23;20405;-64
2024/03/08 09:40:04;;;;;;;33.57;17.97;;;14.80;57.40;;;;;;6156538;23;20406;-66
2024/03/08 09:42:32;;;;;;;20.77;13.80;;;13.90;59.30;;;;;;6155674;23;20449;-66
2024/03/08 09:44:59;;;;;;;25.67;14.37;;;13.00;60.50;;;;;;6154705;23;20980;-67
2024/03/08 09:47:33;;;;;;;21.70;12.90;;;12.40;63.50;;;;;;6154523;23;20429;-65
2024/03/08 09:50:00;;;;;;;25.83;12.17;;;12.40;64.20;;;;;;6154798;23;20382;-65
2024/03/08 09:52:30;;;;;;;23.20;12.90;;;13.10;62.10;;;;;;6154512;23;20781;-66
2024/03/08 09:54:57;;;;;;;22.40;12.60;;;14.00;60.80;;;;;;6154941;23;20433;-65
2024/03/08 09:57:26;;;;;;;19.83;13.00;;;14.90;59.80;;;;;;6154635;23;20441;-66
2024/03/08 09:59:52;;;;;;;22.33;14.00;;;16.00;57.70;;;;;;6154976;23;20438;-66
2024/03/08 10:02:20;;;;;;;20.93;13.43;;;16.80;56.00;;;;;;6153967;23;20999;-66
2024/03/08 10:04:48;;;;;;;18.87;11.93;;;17.50;54.60;;;;;;6154415;23;21025;-66
2024/03/08 10:07:15;;;;;;;19.40;12.17;;;18.20;52.80;;;;;;6154869;23;20417;-65
2024/03/08 10:09:47;;;;;;;19.00;12.30;;;18.70;50.90;;;;;;6154588;23;20413;-65
2024/03/08 10:12:14;;;;;;;21.90;14.47;;;18.90;49.30;;;;;;6153869;23;20427;-65
2024/03/08 10:14:43;;;;;;;22.23;13.80;;;19.00;49.70;;;;;;6154421;23;20434;-65
2024/03/08 10:17:09;;;;;;;16.47;10.60;;;18.90;48.60;;;;;;6151896;23;20888;-49
2024/03/08 10:19:36;;;;;;;20.23;11.07;;;19.10;48.30;;;;;;6154800;23;20489;-57
2024/03/08 10:22:06;;;;;;;18.07;11.50;;;19.30;47.80;;;;;;6154430;23;20422;-53
2024/03/08 10:24:34;;;;;;;18.23;11.53;;;19.60;46.90;;;;;;6154465;23;20803;-54
2024/03/08 10:27:04;;;;;;;18.77;12.03;;;19.60;46.70;;;;;;6154537;23;20410;-56
2024/03/08 10:29:31;;;;;;;18.40;11.87;;;19.40;46.40;;;;;;6152696;23;20465;-55
2024/03/08 10:31:58;;;;;;;17.37;11.00;;;19.40;46.40;;;;;;6153593;23;20426;-55
2024/03/08 10:34:26;;;;;;;18.00;11.27;;;19.30;46.80;;;;;;6154180;23;20943;-52
2024/03/08 10:36:53;;;;;;;19.17;11.87;;;19.20;46.00;;;;;;6153671;23;20923;-55
2024/03/08 10:39:25;;;;;;;18.27;11.83;;;18.90;46.40;;;;;;6154115;23;20442;-56
2024/03/08 10:41:59;;;;;;;18.17;10.27;;;18.90;46.10;;;;;;6153947;23;20437;-56
2024/03/08 10:47:36;;;;;;;15.67;10.07;;;19.20;44.70;;;;;;6153225;23;20438;-50
2024/03/08 10:50:18;;;;;;;18.60;11.97;;;19.10;44.50;;;;;;6154486;23;20406;-55
2024/03/08 10:52:45;;;;;;;17.03;11.33;;;18.70;44.70;;;;;;6154378;23;20513;-53
2024/03/08 10:55:15;;;;;;;19.30;12.30;;;18.50;45.40;;;;;;6154336;23;20414;-52
2024/03/08 10:57:42;;;;;;;19.37;12.00;;;18.40;45.20;;;;;;6153933;23;20490;-49
2024/03/08 11:00:12;;;;;;;20.37;11.10;;;18.40;45.60;;;;;;6154442;23;20409;-51
2024/03/08 11:02:39;;;;;;;20.83;12.60;;;18.30;45.90;;;;;;6153804;23;20488;-51
2024/03/08 11:05:12;;;;;;;18.83;11.17;;;18.10;45.90;;;;;;6154374;23;20406;-56
2024/03/08 11:07:43;;;;;;;17.47;11.80;;;17.90;46.30;;;;;;6154805;23;20391;-56
2024/03/08 11:10:21;;;;;;;21.63;11.60;;;17.70;46.20;;;;;;6154457;23;20406;-51
2024/03/08 11:12:49;;;;;;;16.13;12.00;;;17.20;46.60;;;;;;6153429;23;20422;-55
2024/03/08 11:15:18;;;;;;;17.27;11.30;;;16.80;47.10;;;;;;6154081;23;20901;-54
2024/03/08 11:17:49;;;;;;;16.43;11.20;;;16.60;47.50;;;;;;6155047;23;20470;-49
2024/03/08 11:20:20;;;;;;;16.67;10.40;;;16.20;48.10;;;;;;6153855;23;20402;-54
2024/03/08 11:22:51;;;;;;;21.00;11.40;;;15.90;48.10;;;;;;6154120;23;20426;-55
2024/03/08 11:25:45;;;;;;;21.93;11.90;;;15.60;49.20;;;;;;6154436;23;20755;-52
2024/03/08 11:28:20;;;;;;;17.70;10.60;;;15.10;50.10;;;;;;6126496;23;20823;-52
2024/03/08 11:30:48;;;;;;;16.83;11.40;;;14.80;50.20;;;;;;6153950;23;20868;-53
2024/03/08 11:33:17;;;;;;;19.03;10.20;;;14.30;50.80;;;;;;6153646;23;20415;-49
2024/03/08 11:35:45;;;;;;;21.10;10.70;;;14.10;51.50;;;;;;6154365;23;20398;-49
2024/03/08 11:38:14;;;;;;;18.03;10.50;;;13.80;51.20;;;;;;6154098;23;20512;-52
2024/03/08 11:40:42;;;;;;;19.40;10.50;;;13.60;51.50;;;;;;6154401;23;20799;-51
2024/03/08 11:43:10;;;;;;;19.93;11.77;;;13.40;52.10;;;;;;6153694;23;20928;-54
2024/03/08 11:45:37;;;;;;;15.27;9.60;;;13.20;52.70;;;;;;6154791;23;20485;-51
2024/03/08 11:48:05;;;;;;;15.17;8.03;;;13.00;52.70;;;;;;6154158;23;20500;-52
2024/03/08 11:50:33;;;;;;;16.50;10.37;;;12.90;51.50;;;;;;6155286;23;20501;-49
2024/03/08 11:53:04;;;;;;;20.10;10.00;;;12.60;51.40;;;;;;6154690;23;20462;-53
2024/03/08 11:55:35;;;;;;;13.47;8.33;;;12.40;51.80;;;;;;6155186;23;20733;-54
2024/03/08 11:58:04;;;;;;;17.23;9.23;;;12.20;52.60;;;;;;6152894;23;21079;-55
2024/03/08 12:00:37;;;;;;;15.73;8.03;;;12.10;52.00;;;;;;6155552;23;20410;-50
2024/03/08 12:03:06;;;;;;;12.50;7.43;;;11.90;50.90;;;;;;6154110;23;20505;-53
2024/03/08 12:05:34;;;;;;;12.10;9.30;;;11.90;50.60;;;;;;6154344;23;20518;-53
2024/03/08 12:08:01;;;;;;;15.50;8.37;;;11.90;50.10;;;;;;6154402;23;20736;-54
2024/03/08 12:10:28;;;;;;;14.70;8.60;;;11.70;51.30;;;;;;6155225;23;20442;-56
2024/03/08 12:12:59;;;;;;;19.80;10.40;;;11.70;51.60;;;;;;6155988;23;20458;-54
2024/03/08 12:15:27;;;;;;;19.23;10.57;;;11.70;53.70;;;;;;6156157;23;20387;-47
2024/03/08 12:17:57;;;;;;;20.57;11.17;;;11.70;56.20;;;;;;6156081;23;20427;-55
2024/03/08 12:20:26;;;;;;;22.77;12.50;;;11.80;56.50;;;;;;6155824;23;20406;-52
2024/03/08 12:22:53;;;;;;;21.13;12.47;;;11.80;56.10;;;;;;6154750;23;20763;-54
2024/03/08 12:25:23;;;;;;;23.53;11.23;;;11.90;56.20;;;;;;6155806;23;20952;-56
2024/03/08 12:27:52;;;;;;;20.57;11.60;;;11.90;56.70;;;;;;6155631;23;20409;-52
2024/03/08 12:30:21;;;;;;;17.30;10.57;;;11.90;57.00;;;;;;6155789;23;20497;-54
2024/03/08 12:32:56;;;;;;;18.93;11.93;;;11.90;56.90;;;;;;6154765;23;20422;-52
2024/03/08 12:35:24;;;;;;;21.77;11.73;;;12.00;56.90;;;;;;6155996;23;20396;-56
2024/03/08 12:37:53;;;;;;;21.23;11.43;;;11.90;56.50;;;;;;6155350;23;20908;-52
2024/03/08 12:40:26;;;;;;;27.00;12.47;;;11.90;57.00;;;;;;6155473;23;20438;-53